sensor_id;sensor_type;location;lat;lon;timestamp;P1;durP1;ratioP1;P2;durP2;ratioP2
34876;SDS011;21086;44.780;17.194;2023-01-29T00:00:12;20.13;;;13.95;;
34876;SDS011;21086;44.780;17.194;2023-01-29T00:02:41;20.80;;;14.27;;
34876;SDS011;21086;44.780;17.194;2023-01-29T00:05:08;21.38;;;13.93;;
34876;SDS011;21086;44.780;17.194;2023-01-29T00:07:53;19.67;;;12.82;;
34876;SDS011;21086;44.780;17.194;2023-01-29T00:10:20;19.17;;;12.90;;
34876;SDS011;21086;44.780;17.194;2023-01-29T00:12:48;18.38;;;13.00;;
34876;SDS011;21086;44.780;17.194;2023-01-29T00:15:15;21.38;;;13.10;;
34876;SDS011;21086;44.780;17.194;2023-01-29T00:17:42;16.30;;;11.02;;
34876;SDS011;21086;44.780;17.194;2023-01-29T00:20:10;20.52;;;13.30;;
34876;SDS011;21086;44.780;17.194;2023-01-29T00:22:37;20.58;;;14.23;;
34876;SDS011;21086;44.780;17.194;2023-01-29T00:25:04;21.55;;;15.55;;
34876;SDS011;21086;44.780;17.194;2023-01-29T00:27:32;18.45;;;13.73;;
34876;SDS011;21086;44.780;17.194;2023-01-29T00:29:58;21.00;;;14.43;;
34876;SDS011;21086;44.780;17.194;2023-01-29T00:32:35;18.63;;;13.55;;
34876;SDS011;21086;44.780;17.194;2023-01-29T00:35:08;19.15;;;13.68;;
34876;SDS011;21086;44.780;17.194;2023-01-29T00:37:36;18.92;;;13.95;;
34876;SDS011;21086;44.780;17.194;2023-01-29T00:40:03;16.63;;;11.82;;
34876;SDS011;21086;44.780;17.194;2023-01-29T00:42:30;17.80;;;12.43;;
34876;SDS011;21086;44.780;17.194;2023-01-29T00:45:16;16.80;;;11.55;;
34876;SDS011;21086;44.780;17.194;2023-01-29T00:47:43;20.63;;;13.50;;
34876;SDS011;21086;44.780;17.194;2023-01-29T00:50:10;19.75;;;13.02;;
34876;SDS011;21086;44.780;17.194;2023-01-29T00:52:37;20.00;;;13.90;;
34876;SDS011;21086;44.780;17.194;2023-01-29T00:55:06;20.40;;;13.63;;
34876;SDS011;21086;44.780;17.194;2023-01-29T00:57:34;19.27;;;12.98;;
34876;SDS011;21086;44.780;17.194;2023-01-29T01:00:04;21.15;;;13.60;;
34876;SDS011;21086;44.780;17.194;2023-01-29T01:02:32;20.17;;;12.75;;
34876;SDS011;21086;44.780;17.194;2023-01-29T01:05:21;20.13;;;13.63;;
34876;SDS011;21086;44.780;17.194;2023-01-29T01:07:51;15.85;;;11.48;;
34876;SDS011;21086;44.780;17.194;2023-01-29T01:10:38;19.75;;;12.93;;
34876;SDS011;21086;44.780;17.194;2023-01-29T01:13:08;17.40;;;12.35;;
34876;SDS011;21086;44.780;17.194;2023-01-29T01:15:36;18.95;;;12.85;;
34876;SDS011;21086;44.780;17.194;2023-01-29T01:18:04;18.40;;;12.85;;
34876;SDS011;21086;44.780;17.194;2023-01-29T01:20:32;17.10;;;11.40;;
34876;SDS011;21086;44.780;17.194;2023-01-29T01:23:01;19.10;;;12.65;;
34876;SDS011;21086;44.780;17.194;2023-01-29T01:25:36;14.23;;;10.15;;
34876;SDS011;21086;44.780;17.194;2023-01-29T01:28:03;15.93;;;10.38;;
34876;SDS011;21086;44.780;17.194;2023-01-29T01:30:31;13.60;;;9.82;;
34876;SDS011;21086;44.780;17.194;2023-01-29T01:32:58;13.77;;;9.07;;
34876;SDS011;21086;44.780;17.194;2023-01-29T01:35:25;17.23;;;12.13;;
34876;SDS011;21086;44.780;17.194;2023-01-29T01:37:52;17.85;;;12.60;;
34876;SDS011;21086;44.780;17.194;2023-01-29T01:40:20;19.88;;;12.80;;
34876;SDS011;21086;44.780;17.194;2023-01-29T01:42:50;22.10;;;13.82;;
34876;SDS011;21086;44.780;17.194;2023-01-29T01:45:26;19.35;;;12.73;;
34876;SDS011;21086;44.780;17.194;2023-01-29T01:53:37;19.27;;;13.60;;
34876;SDS011;21086;44.780;17.194;2023-01-29T01:56:15;19.02;;;12.57;;
34876;SDS011;21086;44.780;17.194;2023-01-29T01:58:54;18.80;;;12.25;;
34876;SDS011;21086;44.780;17.194;2023-01-29T02:01:24;18.55;;;12.63;;
34876;SDS011;21086;44.780;17.194;2023-01-29T02:07:11;17.67;;;11.32;;
34876;SDS011;21086;44.780;17.194;2023-01-29T02:10:06;19.77;;;12.55;;
34876;SDS011;21086;44.780;17.194;2023-01-29T02:12:41;17.23;;;11.75;;
34876;SDS011;21086;44.780;17.194;2023-01-29T02:15:09;17.95;;;11.40;;
34876;SDS011;21086;44.780;17.194;2023-01-29T02:17:37;18.48;;;12.48;;
34876;SDS011;21086;44.780;17.194;2023-01-29T02:20:14;16.88;;;11.40;;
34876;SDS011;21086;44.780;17.194;2023-01-29T02:28:46;17.85;;;11.70;;
34876;SDS011;21086;44.780;17.194;2023-01-29T02:31:31;17.40;;;11.90;;
34876;SDS011;21086;44.780;17.194;2023-01-29T02:36:43;15.88;;;11.07;;
34876;SDS011;21086;44.780;17.194;2023-01-29T02:44:36;18.55;;;12.70;;
34876;SDS011;21086;44.780;17.194;2023-01-29T02:47:13;20.02;;;12.07;;
34876;SDS011;21086;44.780;17.194;2023-01-29T02:49:52;21.30;;;12.23;;
34876;SDS011;21086;44.780;17.194;2023-01-29T02:56:11;17.33;;;11.93;;
34876;SDS011;21086;44.780;17.194;2023-01-29T02:58:30;18.38;;;11.38;;
34876;SDS011;21086;44.780;17.194;2023-01-29T03:03:58;18.63;;;12.15;;
34876;SDS011;21086;44.780;17.194;2023-01-29T03:06:34;19.88;;;12.40;;
34876;SDS011;21086;44.780;17.194;2023-01-29T03:09:22;17.40;;;11.57;;
34876;SDS011;21086;44.780;17.194;2023-01-29T03:12:12;16.40;;;11.20;;
34876;SDS011;21086;44.780;17.194;2023-01-29T03:14:54;20.02;;;12.30;;
34876;SDS011;21086;44.780;17.194;2023-01-29T03:20:26;19.30;;;11.77;;
34876;SDS011;21086;44.780;17.194;2023-01-29T03:23:00;20.50;;;12.07;;
34876;SDS011;21086;44.780;17.194;2023-01-29T03:25:31;17.02;;;11.45;;
34876;SDS011;21086;44.780;17.194;2023-01-29T03:28:19;12.80;;;9.32;;
34876;SDS011;21086;44.780;17.194;2023-01-29T03:31:06;19.25;;;12.77;;
34876;SDS011;21086;44.780;17.194;2023-01-29T03:36:52;13.52;;;10.20;;
34876;SDS011;21086;44.780;17.194;2023-01-29T03:39:23;18.08;;;12.80;;
34876;SDS011;21086;44.780;17.194;2023-01-29T03:41:58;19.33;;;12.30;;
34876;SDS011;21086;44.780;17.194;2023-01-29T03:47:17;19.83;;;13.25;;
34876;SDS011;21086;44.780;17.194;2023-01-29T03:52:27;16.42;;;11.43;;
34876;SDS011;21086;44.780;17.194;2023-01-29T03:57:41;19.33;;;12.70;;
34876;SDS011;21086;44.780;17.194;2023-01-29T04:00:39;16.30;;;10.48;;
34876;SDS011;21086;44.780;17.194;2023-01-29T04:03:12;19.42;;;13.98;;
34876;SDS011;21086;44.780;17.194;2023-01-29T04:05:53;19.80;;;12.75;;
34876;SDS011;21086;44.780;17.194;2023-01-29T04:08:31;15.68;;;10.57;;
34876;SDS011;21086;44.780;17.194;2023-01-29T04:11:02;18.23;;;12.73;;
34876;SDS011;21086;44.780;17.194;2023-01-29T04:13:38;19.10;;;11.48;;
34876;SDS011;21086;44.780;17.194;2023-01-29T04:16:06;20.65;;;13.00;;
34876;SDS011;21086;44.780;17.194;2023-01-29T04:18:38;15.90;;;11.52;;
34876;SDS011;21086;44.780;17.194;2023-01-29T04:21:05;20.00;;;12.82;;
34876;SDS011;21086;44.780;17.194;2023-01-29T04:23:32;20.02;;;12.85;;
34876;SDS011;21086;44.780;17.194;2023-01-29T04:26:23;15.15;;;10.90;;
34876;SDS011;21086;44.780;17.194;2023-01-29T04:32:05;16.92;;;10.75;;
34876;SDS011;21086;44.780;17.194;2023-01-29T04:37:42;17.45;;;11.60;;
34876;SDS011;21086;44.780;17.194;2023-01-29T04:48:23;18.48;;;12.23;;
34876;SDS011;21086;44.780;17.194;2023-01-29T04:50:56;18.50;;;12.48;;
34876;SDS011;21086;44.780;17.194;2023-01-29T04:53:40;19.35;;;12.57;;
34876;SDS011;21086;44.780;17.194;2023-01-29T04:56:20;16.90;;;11.77;;
34876;SDS011;21086;44.780;17.194;2023-01-29T04:58:57;18.23;;;11.68;;
34876;SDS011;21086;44.780;17.194;2023-01-29T05:01:29;24.08;;;13.50;;
34876;SDS011;21086;44.780;17.194;2023-01-29T05:03:59;17.67;;;11.88;;
34876;SDS011;21086;44.780;17.194;2023-01-29T05:06:29;15.88;;;11.48;;
34876;SDS011;21086;44.780;17.194;2023-01-29T05:08:58;17.08;;;11.70;;
34876;SDS011;21086;44.780;17.194;2023-01-29T05:11:27;14.02;;;10.30;;
34876;SDS011;21086;44.780;17.194;2023-01-29T05:13:57;20.88;;;13.65;;
34876;SDS011;21086;44.780;17.194;2023-01-29T05:16:29;22.00;;;13.65;;
34876;SDS011;21086;44.780;17.194;2023-01-29T05:19:11;17.83;;;12.32;;
34876;SDS011;21086;44.780;17.194;2023-01-29T05:21:40;21.02;;;13.15;;
34876;SDS011;21086;44.780;17.194;2023-01-29T05:24:11;17.45;;;12.88;;
34876;SDS011;21086;44.780;17.194;2023-01-29T05:26:45;19.80;;;12.98;;
34876;SDS011;21086;44.780;17.194;2023-01-29T05:29:32;16.00;;;11.20;;
34876;SDS011;21086;44.780;17.194;2023-01-29T05:31:59;18.98;;;13.00;;
34876;SDS011;21086;44.780;17.194;2023-01-29T05:34:27;19.45;;;13.05;;
34876;SDS011;21086;44.780;17.194;2023-01-29T05:36:54;19.23;;;12.68;;
34876;SDS011;21086;44.780;17.194;2023-01-29T05:39:21;18.30;;;12.27;;
34876;SDS011;21086;44.780;17.194;2023-01-29T05:41:48;18.85;;;12.77;;
34876;SDS011;21086;44.780;17.194;2023-01-29T05:44:15;16.48;;;11.70;;
34876;SDS011;21086;44.780;17.194;2023-01-29T05:46:41;18.70;;;12.52;;
34876;SDS011;21086;44.780;17.194;2023-01-29T05:49:09;16.10;;;10.95;;
34876;SDS011;21086;44.780;17.194;2023-01-29T05:51:36;19.10;;;13.15;;
34876;SDS011;21086;44.780;17.194;2023-01-29T05:54:03;19.73;;;12.25;;
34876;SDS011;21086;44.780;17.194;2023-01-29T05:56:30;16.52;;;11.75;;
34876;SDS011;21086;44.780;17.194;2023-01-29T05:58:57;19.38;;;13.43;;
34876;SDS011;21086;44.780;17.194;2023-01-29T06:01:24;21.45;;;14.02;;
34876;SDS011;21086;44.780;17.194;2023-01-29T06:03:52;18.15;;;12.65;;
34876;SDS011;21086;44.780;17.194;2023-01-29T06:06:18;18.92;;;13.65;;
34876;SDS011;21086;44.780;17.194;2023-01-29T06:08:46;18.25;;;12.73;;
34876;SDS011;21086;44.780;17.194;2023-01-29T06:11:13;17.17;;;11.98;;
34876;SDS011;21086;44.780;17.194;2023-01-29T06:13:41;24.50;;;14.30;;
34876;SDS011;21086;44.780;17.194;2023-01-29T06:16:10;19.65;;;13.32;;
34876;SDS011;21086;44.780;17.194;2023-01-29T06:18:38;18.75;;;12.13;;
34876;SDS011;21086;44.780;17.194;2023-01-29T06:21:06;19.30;;;12.93;;
34876;SDS011;21086;44.780;17.194;2023-01-29T06:23:36;20.98;;;13.52;;
34876;SDS011;21086;44.780;17.194;2023-01-29T06:26:04;20.15;;;13.88;;
34876;SDS011;21086;44.780;17.194;2023-01-29T06:28:33;19.55;;;13.98;;
34876;SDS011;21086;44.780;17.194;2023-01-29T06:31:01;21.98;;;13.48;;
34876;SDS011;21086;44.780;17.194;2023-01-29T06:33:49;20.27;;;13.32;;
34876;SDS011;21086;44.780;17.194;2023-01-29T06:36:22;19.25;;;12.77;;
34876;SDS011;21086;44.780;17.194;2023-01-29T06:38:49;18.60;;;12.73;;
34876;SDS011;21086;44.780;17.194;2023-01-29T06:41:17;17.27;;;11.65;;
34876;SDS011;21086;44.780;17.194;2023-01-29T06:43:47;16.50;;;11.05;;
34876;SDS011;21086;44.780;17.194;2023-01-29T06:46:13;18.88;;;12.30;;
34876;SDS011;21086;44.780;17.194;2023-01-29T06:48:40;18.08;;;11.90;;
34876;SDS011;21086;44.780;17.194;2023-01-29T06:51:08;22.08;;;14.40;;
34876;SDS011;21086;44.780;17.194;2023-01-29T06:53:36;22.60;;;14.20;;
34876;SDS011;21086;44.780;17.194;2023-01-29T06:56:04;20.75;;;13.70;;
34876;SDS011;21086;44.780;17.194;2023-01-29T06:58:32;21.98;;;14.85;;
34876;SDS011;21086;44.780;17.194;2023-01-29T07:01:04;18.83;;;12.60;;
34876;SDS011;21086;44.780;17.194;2023-01-29T07:03:33;19.40;;;13.57;;
34876;SDS011;21086;44.780;17.194;2023-01-29T07:06:01;23.40;;;16.58;;
34876;SDS011;21086;44.780;17.194;2023-01-29T07:08:28;23.08;;;15.10;;
34876;SDS011;21086;44.780;17.194;2023-01-29T07:10:59;18.88;;;12.55;;
34876;SDS011;21086;44.780;17.194;2023-01-29T07:13:26;21.17;;;15.43;;
34876;SDS011;21086;44.780;17.194;2023-01-29T07:15:53;21.13;;;14.82;;
34876;SDS011;21086;44.780;17.194;2023-01-29T07:18:23;22.35;;;16.30;;
34876;SDS011;21086;44.780;17.194;2023-01-29T07:20:50;19.90;;;13.20;;
34876;SDS011;21086;44.780;17.194;2023-01-29T07:23:17;22.13;;;14.20;;
34876;SDS011;21086;44.780;17.194;2023-01-29T07:25:44;17.95;;;12.57;;
34876;SDS011;21086;44.780;17.194;2023-01-29T07:28:11;20.30;;;13.63;;
34876;SDS011;21086;44.780;17.194;2023-01-29T07:30:38;19.42;;;13.43;;
34876;SDS011;21086;44.780;17.194;2023-01-29T07:33:06;23.60;;;15.43;;
34876;SDS011;21086;44.780;17.194;2023-01-29T07:35:35;19.42;;;13.32;;
34876;SDS011;21086;44.780;17.194;2023-01-29T07:38:03;16.65;;;12.10;;
34876;SDS011;21086;44.780;17.194;2023-01-29T07:40:31;23.27;;;16.50;;
34876;SDS011;21086;44.780;17.194;2023-01-29T07:43:01;23.27;;;15.95;;
34876;SDS011;21086;44.780;17.194;2023-01-29T07:45:32;25.85;;;18.10;;
34876;SDS011;21086;44.780;17.194;2023-01-29T07:48:00;23.00;;;15.50;;
34876;SDS011;21086;44.780;17.194;2023-01-29T07:50:28;20.23;;;14.23;;
34876;SDS011;21086;44.780;17.194;2023-01-29T07:52:55;30.42;;;19.95;;
34876;SDS011;21086;44.780;17.194;2023-01-29T07:55:22;28.13;;;18.73;;
34876;SDS011;21086;44.780;17.194;2023-01-29T07:57:56;46.63;;;29.80;;
34876;SDS011;21086;44.780;17.194;2023-01-29T08:00:27;48.30;;;28.83;;
34876;SDS011;21086;44.780;17.194;2023-01-29T08:03:10;26.40;;;17.83;;
34876;SDS011;21086;44.780;17.194;2023-01-29T08:05:38;23.98;;;16.33;;
34876;SDS011;21086;44.780;17.194;2023-01-29T08:08:05;28.85;;;18.90;;
34876;SDS011;21086;44.780;17.194;2023-01-29T08:10:36;24.73;;;16.73;;
34876;SDS011;21086;44.780;17.194;2023-01-29T08:13:04;24.10;;;15.73;;
34876;SDS011;21086;44.780;17.194;2023-01-29T08:15:32;25.50;;;17.35;;
34876;SDS011;21086;44.780;17.194;2023-01-29T08:18:03;22.88;;;15.60;;
34876;SDS011;21086;44.780;17.194;2023-01-29T08:20:30;25.92;;;17.27;;
34876;SDS011;21086;44.780;17.194;2023-01-29T08:23:00;23.67;;;14.50;;
34876;SDS011;21086;44.780;17.194;2023-01-29T08:25:32;22.63;;;14.32;;
34876;SDS011;21086;44.780;17.194;2023-01-29T08:28:03;26.00;;;15.45;;
34876;SDS011;21086;44.780;17.194;2023-01-29T08:30:31;16.88;;;10.95;;
34876;SDS011;21086;44.780;17.194;2023-01-29T08:33:09;23.80;;;15.57;;
34876;SDS011;21086;44.780;17.194;2023-01-29T08:35:36;20.63;;;14.27;;
34876;SDS011;21086;44.780;17.194;2023-01-29T08:38:03;28.23;;;18.45;;
34876;SDS011;21086;44.780;17.194;2023-01-29T08:40:32;29.40;;;20.05;;
34876;SDS011;21086;44.780;17.194;2023-01-29T08:43:02;24.90;;;17.20;;
34876;SDS011;21086;44.780;17.194;2023-01-29T08:45:34;19.65;;;14.35;;
34876;SDS011;21086;44.780;17.194;2023-01-29T08:48:04;26.83;;;20.27;;
34876;SDS011;21086;44.780;17.194;2023-01-29T08:50:31;24.58;;;17.95;;
34876;SDS011;21086;44.780;17.194;2023-01-29T08:53:01;22.30;;;15.15;;
34876;SDS011;21086;44.780;17.194;2023-01-29T08:55:29;21.48;;;14.25;;
34876;SDS011;21086;44.780;17.194;2023-01-29T08:57:56;23.45;;;16.58;;
34876;SDS011;21086;44.780;17.194;2023-01-29T09:00:24;26.80;;;18.90;;
34876;SDS011;21086;44.780;17.194;2023-01-29T09:02:51;24.27;;;16.42;;
34876;SDS011;21086;44.780;17.194;2023-01-29T09:05:26;29.45;;;20.10;;
34876;SDS011;21086;44.780;17.194;2023-01-29T09:07:57;21.13;;;15.45;;
34876;SDS011;21086;44.780;17.194;2023-01-29T09:10:24;23.60;;;16.80;;
34876;SDS011;21086;44.780;17.194;2023-01-29T09:12:52;28.50;;;18.90;;
34876;SDS011;21086;44.780;17.194;2023-01-29T09:15:19;23.88;;;16.27;;
34876;SDS011;21086;44.780;17.194;2023-01-29T09:17:46;33.10;;;23.35;;
34876;SDS011;21086;44.780;17.194;2023-01-29T09:20:15;27.95;;;17.58;;
34876;SDS011;21086;44.780;17.194;2023-01-29T09:22:43;26.70;;;18.88;;
34876;SDS011;21086;44.780;17.194;2023-01-29T09:25:10;29.38;;;20.10;;
34876;SDS011;21086;44.780;17.194;2023-01-29T09:27:38;26.70;;;19.10;;
34876;SDS011;21086;44.780;17.194;2023-01-29T09:30:05;25.92;;;17.98;;
34876;SDS011;21086;44.780;17.194;2023-01-29T09:32:33;20.80;;;14.98;;
34876;SDS011;21086;44.780;17.194;2023-01-29T09:35:18;22.35;;;15.60;;
34876;SDS011;21086;44.780;17.194;2023-01-29T09:37:54;24.52;;;17.25;;
34876;SDS011;21086;44.780;17.194;2023-01-29T09:40:40;25.80;;;17.58;;
34876;SDS011;21086;44.780;17.194;2023-01-29T09:43:19;26.20;;;18.48;;
34876;SDS011;21086;44.780;17.194;2023-01-29T09:46:04;33.65;;;21.95;;
34876;SDS011;21086;44.780;17.194;2023-01-29T09:49:04;19.65;;;13.57;;
34876;SDS011;21086;44.780;17.194;2023-01-29T09:51:48;29.13;;;16.85;;
34876;SDS011;21086;44.780;17.194;2023-01-29T10:11:27;35.65;;;23.48;;
34876;SDS011;21086;44.780;17.194;2023-01-29T10:14:13;44.80;;;30.65;;
34876;SDS011;21086;44.780;17.194;2023-01-29T10:16:54;35.55;;;21.13;;
34876;SDS011;21086;44.780;17.194;2023-01-29T10:24:46;28.40;;;17.38;;
34876;SDS011;21086;44.780;17.194;2023-01-29T10:27:47;18.67;;;12.38;;
34876;SDS011;21086;44.780;17.194;2023-01-29T10:30:21;25.05;;;13.98;;
34876;SDS011;21086;44.780;17.194;2023-01-29T10:32:52;23.55;;;14.77;;
34876;SDS011;21086;44.780;17.194;2023-01-29T10:35:22;24.23;;;14.10;;
34876;SDS011;21086;44.780;17.194;2023-01-29T10:37:53;20.67;;;13.60;;
34876;SDS011;21086;44.780;17.194;2023-01-29T10:41:09;24.17;;;14.55;;
34876;SDS011;21086;44.780;17.194;2023-01-29T10:43:30;24.00;;;15.00;;
34876;SDS011;21086;44.780;17.194;2023-01-29T10:54:34;20.02;;;12.45;;
34876;SDS011;21086;44.780;17.194;2023-01-29T10:57:11;22.83;;;14.05;;
34876;SDS011;21086;44.780;17.194;2023-01-29T11:00:34;22.40;;;13.70;;
34876;SDS011;21086;44.780;17.194;2023-01-29T11:11:15;21.20;;;13.80;;
34876;SDS011;21086;44.780;17.194;2023-01-29T11:16:41;24.13;;;17.20;;
34876;SDS011;21086;44.780;17.194;2023-01-29T11:28:56;24.75;;;15.73;;
34876;SDS011;21086;44.780;17.194;2023-01-29T11:34:14;18.60;;;12.45;;
34876;SDS011;21086;44.780;17.194;2023-01-29T11:36:47;17.60;;;11.70;;
34876;SDS011;21086;44.780;17.194;2023-01-29T11:39:26;25.10;;;14.82;;
34876;SDS011;21086;44.780;17.194;2023-01-29T11:44:44;20.10;;;13.70;;
34876;SDS011;21086;44.780;17.194;2023-01-29T11:47:11;21.00;;;15.27;;
34876;SDS011;21086;44.780;17.194;2023-01-29T11:49:55;17.75;;;13.43;;
34876;SDS011;21086;44.780;17.194;2023-01-29T11:52:26;20.33;;;13.32;;
34876;SDS011;21086;44.780;17.194;2023-01-29T11:55:05;31.20;;;19.90;;
34876;SDS011;21086;44.780;17.194;2023-01-29T12:03:32;23.30;;;14.85;;
34876;SDS011;21086;44.780;17.194;2023-01-29T12:08:56;18.52;;;13.20;;
34876;SDS011;21086;44.780;17.194;2023-01-29T12:14:02;17.77;;;12.23;;
34876;SDS011;21086;44.780;17.194;2023-01-29T12:20:07;19.80;;;14.75;;
34876;SDS011;21086;44.780;17.194;2023-01-29T12:22:45;22.33;;;13.70;;
34876;SDS011;21086;44.780;17.194;2023-01-29T12:25:55;19.55;;;12.63;;
34876;SDS011;21086;44.780;17.194;2023-01-29T12:31:25;19.73;;;13.52;;
34876;SDS011;21086;44.780;17.194;2023-01-29T12:34:03;18.88;;;13.45;;
34876;SDS011;21086;44.780;17.194;2023-01-29T12:36:51;22.60;;;14.45;;
34876;SDS011;21086;44.780;17.194;2023-01-29T12:39:32;19.17;;;11.95;;
34876;SDS011;21086;44.780;17.194;2023-01-29T12:42:07;22.63;;;15.27;;
34876;SDS011;21086;44.780;17.194;2023-01-29T12:44:40;19.48;;;12.60;;
34876;SDS011;21086;44.780;17.194;2023-01-29T12:47:20;16.67;;;11.38;;
34876;SDS011;21086;44.780;17.194;2023-01-29T12:50:05;19.25;;;12.18;;
34876;SDS011;21086;44.780;17.194;2023-01-29T12:52:42;18.70;;;11.57;;
34876;SDS011;21086;44.780;17.194;2023-01-29T12:55:30;12.85;;;8.02;;
34876;SDS011;21086;44.780;17.194;2023-01-29T12:58:43;33.75;;;20.25;;
34876;SDS011;21086;44.780;17.194;2023-01-29T13:01:18;24.45;;;15.23;;
34876;SDS011;21086;44.780;17.194;2023-01-29T13:04:00;38.85;;;22.58;;
34876;SDS011;21086;44.780;17.194;2023-01-29T13:06:46;22.63;;;13.65;;
34876;SDS011;21086;44.780;17.194;2023-01-29T13:12:19;29.17;;;20.27;;
34876;SDS011;21086;44.780;17.194;2023-01-29T13:20:59;29.42;;;22.90;;
34876;SDS011;21086;44.780;17.194;2023-01-29T13:23:46;23.40;;;15.98;;
34876;SDS011;21086;44.780;17.194;2023-01-29T13:26:17;22.60;;;16.63;;
34876;SDS011;21086;44.780;17.194;2023-01-29T13:28:47;29.42;;;19.75;;
34876;SDS011;21086;44.780;17.194;2023-01-29T13:36:35;29.58;;;20.38;;
34876;SDS011;21086;44.780;17.194;2023-01-29T13:39:14;21.00;;;14.77;;
34876;SDS011;21086;44.780;17.194;2023-01-29T13:45:01;20.10;;;14.50;;
34876;SDS011;21086;44.780;17.194;2023-01-29T13:47:32;24.40;;;16.70;;
34876;SDS011;21086;44.780;17.194;2023-01-29T13:50:08;20.17;;;14.85;;
34876;SDS011;21086;44.780;17.194;2023-01-29T13:52:53;24.85;;;17.02;;
34876;SDS011;21086;44.780;17.194;2023-01-29T13:55:36;22.45;;;16.15;;
34876;SDS011;21086;44.780;17.194;2023-01-29T13:58:05;21.05;;;14.40;;
34876;SDS011;21086;44.780;17.194;2023-01-29T14:30:15;25.88;;;18.33;;
34876;SDS011;21086;44.780;17.194;2023-01-29T14:32:45;30.40;;;20.50;;
34876;SDS011;21086;44.780;17.194;2023-01-29T14:35:50;33.25;;;23.52;;
34876;SDS011;21086;44.780;17.194;2023-01-29T14:41:16;23.25;;;16.65;;
34876;SDS011;21086;44.780;17.194;2023-01-29T14:47:50;29.17;;;20.90;;
34876;SDS011;21086;44.780;17.194;2023-01-29T14:50:39;20.50;;;14.32;;
34876;SDS011;21086;44.780;17.194;2023-01-29T14:53:17;42.35;;;30.50;;
34876;SDS011;21086;44.780;17.194;2023-01-29T14:56:20;31.63;;;15.65;;
34876;SDS011;21086;44.780;17.194;2023-01-29T14:59:12;27.45;;;17.48;;
34876;SDS011;21086;44.780;17.194;2023-01-29T15:02:37;26.38;;;16.02;;
34876;SDS011;21086;44.780;17.194;2023-01-29T15:05:31;31.05;;;17.67;;
34876;SDS011;21086;44.780;17.194;2023-01-29T15:08:24;36.47;;;22.63;;
34876;SDS011;21086;44.780;17.194;2023-01-29T15:11:11;32.08;;;22.55;;
34876;SDS011;21086;44.780;17.194;2023-01-29T15:20:38;37.10;;;23.88;;
34876;SDS011;21086;44.780;17.194;2023-01-29T15:31:20;32.40;;;22.05;;
34876;SDS011;21086;44.780;17.194;2023-01-29T15:34:15;33.47;;;23.50;;
34876;SDS011;21086;44.780;17.194;2023-01-29T15:36:45;32.15;;;21.55;;
34876;SDS011;21086;44.780;17.194;2023-01-29T15:45:20;44.10;;;29.08;;
34876;SDS011;21086;44.780;17.194;2023-01-29T15:58:48;35.65;;;23.52;;
34876;SDS011;21086;44.780;17.194;2023-01-29T16:06:52;55.70;;;39.22;;
34876;SDS011;21086;44.780;17.194;2023-01-29T16:09:22;45.05;;;30.20;;
34876;SDS011;21086;44.780;17.194;2023-01-29T16:11:51;35.17;;;24.83;;
34876;SDS011;21086;44.780;17.194;2023-01-29T16:14:22;31.73;;;21.45;;
34876;SDS011;21086;44.780;17.194;2023-01-29T16:17:09;31.83;;;21.95;;
34876;SDS011;21086;44.780;17.194;2023-01-29T16:20:02;29.20;;;19.00;;
34876;SDS011;21086;44.780;17.194;2023-01-29T16:22:34;30.52;;;20.27;;
34876;SDS011;21086;44.780;17.194;2023-01-29T16:25:07;35.10;;;23.23;;
34876;SDS011;21086;44.780;17.194;2023-01-29T16:27:39;30.52;;;19.52;;
34876;SDS011;21086;44.780;17.194;2023-01-29T16:30:12;34.33;;;24.65;;
34876;SDS011;21086;44.780;17.194;2023-01-29T16:32:41;32.22;;;21.55;;
34876;SDS011;21086;44.780;17.194;2023-01-29T16:35:12;26.08;;;18.73;;
34876;SDS011;21086;44.780;17.194;2023-01-29T16:37:42;25.38;;;17.58;;
34876;SDS011;21086;44.780;17.194;2023-01-29T16:40:29;19.92;;;14.30;;
34876;SDS011;21086;44.780;17.194;2023-01-29T16:45:57;21.45;;;15.32;;
34876;SDS011;21086;44.780;17.194;2023-01-29T16:48:38;23.27;;;16.10;;
34876;SDS011;21086;44.780;17.194;2023-01-29T16:51:13;18.70;;;13.75;;
34876;SDS011;21086;44.780;17.194;2023-01-29T16:56:26;22.35;;;15.23;;
34876;SDS011;21086;44.780;17.194;2023-01-29T16:58:59;23.95;;;15.77;;
34876;SDS011;21086;44.780;17.194;2023-01-29T17:01:30;27.40;;;16.65;;
34876;SDS011;21086;44.780;17.194;2023-01-29T17:04:06;25.38;;;17.05;;
34876;SDS011;21086;44.780;17.194;2023-01-29T17:06:39;23.92;;;17.98;;
34876;SDS011;21086;44.780;17.194;2023-01-29T17:12:06;28.85;;;20.08;;
34876;SDS011;21086;44.780;17.194;2023-01-29T17:14:41;28.05;;;18.58;;
34876;SDS011;21086;44.780;17.194;2023-01-29T17:17:28;21.83;;;14.23;;
34876;SDS011;21086;44.780;17.194;2023-01-29T17:19:58;34.17;;;23.63;;
34876;SDS011;21086;44.780;17.194;2023-01-29T17:22:40;26.38;;;17.83;;
34876;SDS011;21086;44.780;17.194;2023-01-29T17:25:08;29.00;;;19.08;;
34876;SDS011;21086;44.780;17.194;2023-01-29T17:27:40;31.10;;;20.33;;
34876;SDS011;21086;44.780;17.194;2023-01-29T17:30:13;28.38;;;20.20;;
34876;SDS011;21086;44.780;17.194;2023-01-29T17:32:41;24.63;;;16.88;;
34876;SDS011;21086;44.780;17.194;2023-01-29T17:35:13;30.55;;;20.05;;
34876;SDS011;21086;44.780;17.194;2023-01-29T17:37:45;26.90;;;18.48;;
34876;SDS011;21086;44.780;17.194;2023-01-29T17:42:52;38.50;;;25.73;;
34876;SDS011;21086;44.780;17.194;2023-01-29T17:45:20;36.55;;;24.95;;
34876;SDS011;21086;44.780;17.194;2023-01-29T17:47:47;83.60;;;40.80;;
34876;SDS011;21086;44.780;17.194;2023-01-29T17:50:16;86.75;;;46.25;;
34876;SDS011;21086;44.780;17.194;2023-01-29T17:52:48;61.67;;;37.67;;
34876;SDS011;21086;44.780;17.194;2023-01-29T17:55:16;62.30;;;43.85;;
34876;SDS011;21086;44.780;17.194;2023-01-29T17:57:43;58.08;;;40.03;;
34876;SDS011;21086;44.780;17.194;2023-01-29T18:02:56;70.60;;;43.10;;
34876;SDS011;21086;44.780;17.194;2023-01-29T18:05:26;48.53;;;34.53;;
34876;SDS011;21086;44.780;17.194;2023-01-29T18:07:53;54.33;;;36.20;;
34876;SDS011;21086;44.780;17.194;2023-01-29T18:10:20;49.17;;;32.33;;
34876;SDS011;21086;44.780;17.194;2023-01-29T18:12:48;48.05;;;33.90;;
34876;SDS011;21086;44.780;17.194;2023-01-29T18:15:15;50.13;;;35.83;;
34876;SDS011;21086;44.780;17.194;2023-01-29T18:17:43;44.53;;;32.20;;
34876;SDS011;21086;44.780;17.194;2023-01-29T18:20:20;45.10;;;32.05;;
34876;SDS011;21086;44.780;17.194;2023-01-29T18:22:51;43.33;;;30.98;;
34876;SDS011;21086;44.780;17.194;2023-01-29T18:25:18;38.60;;;27.67;;
34876;SDS011;21086;44.780;17.194;2023-01-29T18:27:46;38.25;;;27.75;;
34876;SDS011;21086;44.780;17.194;2023-01-29T18:30:13;40.78;;;28.27;;
34876;SDS011;21086;44.780;17.194;2023-01-29T18:32:40;48.42;;;33.25;;
34876;SDS011;21086;44.780;17.194;2023-01-29T18:35:08;45.05;;;32.05;;
34876;SDS011;21086;44.780;17.194;2023-01-29T18:37:35;49.13;;;33.90;;
34876;SDS011;21086;44.780;17.194;2023-01-29T18:40:02;44.92;;;31.25;;
34876;SDS011;21086;44.780;17.194;2023-01-29T18:42:31;55.08;;;36.38;;